Time;durP1;ratioP1;P1;durP2;ratioP2;P2;SDS_P1;SDS_P2;PMS_P1;PMS_P2;Temp;Humidity;BMP_temperature;BMP_pressure;BME280_temperature;BME280_humidity;BME280_pressure;Samples;Min_cycle;Max_cycle;Signal;HPM_P1;HPM_P2
2023/06/27 00:01:57;;;;;;;3.90;1.48;;;;;;;;;;5026709;28;20080;-62
2023/06/27 00:04:23;;;;;;;5.60;1.48;;;;;;;;;;5058404;28;20087;-67
2023/06/27 00:06:50;;;;;;;7.30;1.58;;;;;;;;;;5047355;28;20080;-69
2023/06/27 00:09:17;;;;;;;7.55;1.58;;;;;;;;;;5059076;28;20066;-69
2023/06/27 00:11:44;;;;;;;4.40;1.52;;;;;;;;;;4990258;28;20060;-73
2023/06/27 00:14:13;;;;;;;8.95;1.88;;;;;;;;;;5052509;28;20055;-70
2023/06/27 00:16:40;;;;;;;5.47;2.15;;;;;;;;;;4953489;28;20051;-65
2023/06/27 00:19:07;;;;;;;5.80;2.35;;;;;;;;;;4985222;28;20055;-72
2023/06/27 00:21:33;;;;;;;3.65;1.70;;;;;;;;;;4995693;28;20055;-62
2023/06/27 00:24:00;;;;;;;5.68;2.15;;;;;;;;;;4988711;27;20182;-69
2023/06/27 00:26:27;;;;;;;6.03;1.75;;;;;;;;;;4963123;28;20079;-69
2023/06/27 00:28:55;;;;;;;3.50;1.85;;;;;;;;;;5008765;28;20106;-67
2023/06/27 00:31:21;;;;;;;10.48;2.13;;;;;;;;;;5015672;28;20122;-66
2023/06/27 00:33:48;;;;;;;5.32;1.98;;;;;;;;;;4993721;28;20076;-68
2023/06/27 00:36:15;;;;;;;6.00;2.47;;;;;;;;;;4997582;28;20089;-73
2023/06/27 00:38:42;;;;;;;7.50;2.20;;;;;;;;;;4988832;28;20057;-65
2023/06/27 00:41:08;;;;;;;7.50;2.58;;;;;;;;;;4994877;28;20149;-67
2023/06/27 00:43:36;;;;;;;5.47;2.60;;;;;;;;;;4995464;28;20163;-67
2023/06/27 00:46:06;;;;;;;6.50;2.33;;;;;;;;;;5013484;28;20141;-68
2023/06/27 00:48:33;;;;;;;6.10;2.30;;;;;;;;;;4974688;28;20122;-69
2023/06/27 00:51:00;;;;;;;7.55;2.20;;;;;;;;;;4992331;28;20122;-70
2023/06/27 00:53:27;;;;;;;7.57;2.20;;;;;;;;;;4995281;28;20050;-69
2023/06/27 00:55:53;;;;;;;6.97;2.20;;;;;;;;;;4998172;28;20157;-70
2023/06/27 00:58:20;;;;;;;5.00;2.20;;;;;;;;;;4975184;28;20054;-70
2023/06/27 01:00:48;;;;;;;4.82;2.22;;;;;;;;;;4995865;28;20064;-65
2023/06/27 01:03:18;;;;;;;7.18;2.45;;;;;;;;;;4980839;28;20049;-65
2023/06/27 01:05:45;;;;;;;4.45;1.50;;;;;;;;;;4978242;28;20053;-69
2023/06/27 01:08:14;;;;;;;4.90;1.45;;;;;;;;;;4984540;28;20057;-64
2023/06/27 01:10:44;;;;;;;6.75;2.00;;;;;;;;;;4977186;28;20064;-65
2023/06/27 01:13:15;;;;;;;7.38;2.38;;;;;;;;;;4976572;28;21248;-68
2023/06/27 01:15:42;;;;;;;6.57;2.20;;;;;;;;;;4994735;28;20058;-69
2023/06/27 01:18:09;;;;;;;4.95;2.40;;;;;;;;;;4995041;28;20117;-67
2023/06/27 01:20:37;;;;;;;7.87;1.90;;;;;;;;;;4982448;28;20054;-71
2023/06/27 01:23:08;;;;;;;6.47;2.10;;;;;;;;;;4992695;28;20093;-68
2023/06/27 01:25:37;;;;;;;4.70;1.60;;;;;;;;;;4994151;28;20104;-65
2023/06/27 01:28:04;;;;;;;6.80;2.15;;;;;;;;;;4982950;28;20058;-63
2023/06/27 01:30:33;;;;;;;7.10;1.80;;;;;;;;;;4994788;28;20066;-69
2023/06/27 01:33:04;;;;;;;7.03;2.05;;;;;;;;;;4991267;28;20138;-65
2023/06/27 01:35:33;;;;;;;4.10;1.90;;;;;;;;;;4977311;28;20229;-64
2023/06/27 01:38:02;;;;;;;4.95;1.95;;;;;;;;;;4968785;28;20073;-69
2023/06/27 01:40:29;;;;;;;5.18;2.00;;;;;;;;;;4995488;28;20057;-65
2023/06/27 01:43:00;;;;;;;8.63;1.77;;;;;;;;;;4974395;28;20217;-67
2023/06/27 01:45:27;;;;;;;5.45;1.63;;;;;;;;;;4994274;28;20061;-67
2023/06/27 01:47:54;;;;;;;6.10;1.90;;;;;;;;;;4977960;28;20061;-65
2023/06/27 01:50:21;;;;;;;5.22;1.88;;;;;;;;;;4976873;28;20130;-71
2023/06/27 01:52:47;;;;;;;10.65;2.45;;;;;;;;;;4974595;28;20053;-66
2023/06/27 01:55:14;;;;;;;3.95;1.80;;;;;;;;;;4997157;28;20058;-70
2023/06/27 01:57:40;;;;;;;7.18;1.77;;;;;;;;;;4992554;28;20058;-63
2023/06/27 02:00:10;;;;;;;11.50;1.73;;;;;;;;;;4979526;28;20050;-66
2023/06/27 02:02:36;;;;;;;5.57;2.05;;;;;;;;;;4999055;28;20066;-67
2023/06/27 02:05:03;;;;;;;4.88;1.70;;;;;;;;;;4956874;28;20069;-67
2023/06/27 02:07:29;;;;;;;7.15;1.88;;;;;;;;;;4976528;28;20054;-72
2023/06/27 02:09:56;;;;;;;4.65;1.70;;;;;;;;;;4972590;28;20050;-65
2023/06/27 02:12:22;;;;;;;6.40;1.77;;;;;;;;;;4986427;28;20109;-64
2023/06/27 02:14:49;;;;;;;4.72;1.50;;;;;;;;;;4976558;28;20050;-66
2023/06/27 02:17:17;;;;;;;5.47;1.60;;;;;;;;;;5004076;28;20061;-70
2023/06/27 02:19:44;;;;;;;4.88;1.90;;;;;;;;;;4995498;28;20095;-63
2023/06/27 02:22:10;;;;;;;5.32;1.65;;;;;;;;;;4986175;28;20057;-65
2023/06/27 02:24:37;;;;;;;7.20;2.00;;;;;;;;;;4978263;28;20113;-66
2023/06/27 02:27:03;;;;;;;13.90;2.25;;;;;;;;;;4994600;28;20081;-65
2023/06/27 02:29:30;;;;;;;6.10;2.00;;;;;;;;;;4998576;28;20122;-71
2023/06/27 02:31:57;;;;;;;5.35;1.50;;;;;;;;;;5011625;28;20064;-65
2023/06/27 02:34:25;;;;;;;8.38;2.08;;;;;;;;;;4973474;28;20081;-67
2023/06/27 02:36:51;;;;;;;6.72;1.88;;;;;;;;;;4998217;28;20049;-65
2023/06/27 02:39:18;;;;;;;8.10;1.80;;;;;;;;;;4978796;28;20115;-64
2023/06/27 02:41:44;;;;;;;4.80;1.90;;;;;;;;;;4977650;28;20073;-65
2023/06/27 02:44:10;;;;;;;8.45;1.88;;;;;;;;;;4970666;28;20070;-64
2023/06/27 02:46:37;;;;;;;5.68;1.88;;;;;;;;;;5023160;28;20050;-69
2023/06/27 02:49:03;;;;;;;6.70;1.80;;;;;;;;;;4981032;28;20103;-68
2023/06/27 02:51:31;;;;;;;6.93;1.75;;;;;;;;;;4979681;28;20061;-63
2023/06/27 02:53:58;;;;;;;5.63;1.80;;;;;;;;;;4990927;28;20118;-71
2023/06/27 02:56:24;;;;;;;6.68;1.90;;;;;;;;;;4972534;28;20058;-65
2023/06/27 02:58:51;;;;;;;8.27;2.10;;;;;;;;;;4976865;28;20146;-69
2023/06/27 03:01:17;;;;;;;7.60;1.88;;;;;;;;;;4975907;28;20108;-69
2023/06/27 03:03:45;;;;;;;5.63;1.85;;;;;;;;;;4973877;28;20058;-66
2023/06/27 03:06:12;;;;;;;5.05;1.98;;;;;;;;;;4974140;28;20078;-70
2023/06/27 03:08:44;;;;;;;5.25;2.08;;;;;;;;;;4967810;28;20144;-65
2023/06/27 03:11:10;;;;;;;7.88;2.20;;;;;;;;;;4976139;28;20069;-67
2023/06/27 03:13:37;;;;;;;6.72;1.88;;;;;;;;;;4975593;28;20055;-71
2023/06/27 03:16:07;;;;;;;4.50;1.80;;;;;;;;;;4974519;28;20058;-66
2023/06/27 03:18:33;;;;;;;8.23;2.10;;;;;;;;;;4962403;28;20120;-72
2023/06/27 03:21:00;;;;;;;6.38;2.10;;;;;;;;;;4973778;28;20092;-65
2023/06/27 03:23:27;;;;;;;9.23;1.80;;;;;;;;;;4975450;28;20106;-69
2023/06/27 03:25:56;;;;;;;7.05;1.92;;;;;;;;;;4970462;28;20054;-67
2023/06/27 03:28:23;;;;;;;6.13;2.20;;;;;;;;;;4974007;28;20205;-68
2023/06/27 03:30:50;;;;;;;6.82;2.17;;;;;;;;;;4970606;28;20066;-66
2023/06/27 03:33:16;;;;;;;7.32;2.15;;;;;;;;;;4976929;28;20058;-65
2023/06/27 03:35:43;;;;;;;6.70;2.30;;;;;;;;;;4963576;28;20058;-68
2023/06/27 03:38:09;;;;;;;6.50;2.17;;;;;;;;;;4976601;28;20119;-68
2023/06/27 03:40:36;;;;;;;8.98;2.25;;;;;;;;;;4965526;28;20078;-68
2023/06/27 03:43:04;;;;;;;6.82;2.10;;;;;;;;;;4979016;28;20178;-69
2023/06/27 03:45:30;;;;;;;5.97;1.98;;;;;;;;;;4968822;28;20153;-63
2023/06/27 03:47:57;;;;;;;8.07;2.10;;;;;;;;;;4975094;28;20054;-67
2023/06/27 03:50:36;;;;;;;6.10;2.00;;;;;;;;;;4973478;28;20177;-68
2023/06/27 03:53:05;;;;;;;7.72;2.17;;;;;;;;;;4980374;28;20145;-65
2023/06/27 03:55:34;;;;;;;7.45;1.83;;;;;;;;;;4970638;28;20085;-65
2023/06/27 03:58:00;;;;;;;11.95;2.08;;;;;;;;;;4979973;28;20062;-65
2023/06/27 04:00:29;;;;;;;12.50;2.17;;;;;;;;;;4970873;28;20084;-68
2023/06/27 04:02:55;;;;;;;6.20;1.90;;;;;;;;;;4978022;28;20189;-65
2023/06/27 04:05:22;;;;;;;5.35;1.77;;;;;;;;;;4975769;28;20100;-67
2023/06/27 04:07:49;;;;;;;10.77;2.40;;;;;;;;;;4974662;28;20054;-70
2023/06/27 04:10:18;;;;;;;7.10;1.95;;;;;;;;;;4960036;28;20058;-73
2023/06/27 04:12:45;;;;;;;6.13;2.30;;;;;;;;;;4931304;28;20051;-73
2023/06/27 04:15:11;;;;;;;6.78;2.00;;;;;;;;;;4936678;28;20123;-68
2023/06/27 04:17:39;;;;;;;6.88;2.05;;;;;;;;;;4965430;28;20061;-66
2023/06/27 04:20:06;;;;;;;10.10;2.50;;;;;;;;;;4956872;28;20120;-65
2023/06/27 04:22:33;;;;;;;9.93;2.30;;;;;;;;;;4962821;28;20107;-66
2023/06/27 04:24:59;;;;;;;7.22;2.35;;;;;;;;;;4986781;28;20107;-67
2023/06/27 04:27:26;;;;;;;5.47;2.10;;;;;;;;;;4980393;28;20070;-67
2023/06/27 04:29:52;;;;;;;3.90;2.00;;;;;;;;;;4983759;28;20061;-67
2023/06/27 04:32:19;;;;;;;5.47;2.20;;;;;;;;;;4972898;28;20090;-65
2023/06/27 04:34:50;;;;;;;9.65;2.40;;;;;;;;;;4963698;28;20080;-69
2023/06/27 04:37:18;;;;;;;9.43;3.40;;;;;;;;;;4962726;28;20062;-67
2023/06/27 04:39:45;;;;;;;24.20;10.27;;;;;;;;;;4978879;28;20061;-69
2023/06/27 04:42:11;;;;;;;33.17;15.93;;;;;;;;;;4974584;28;20100;-72
2023/06/27 04:44:38;;;;;;;10.88;3.63;;;;;;;;;;5023568;27;20219;-67
2023/06/27 04:47:04;;;;;;;8.18;2.55;;;;;;;;;;5052927;28;20135;-66
2023/06/27 04:49:31;;;;;;;11.55;2.42;;;;;;;;;;5044690;28;20076;-66
2023/06/27 04:51:59;;;;;;;7.40;2.17;;;;;;;;;;5051083;28;20060;-68
2023/06/27 04:54:26;;;;;;;5.18;1.58;;;;;;;;;;5029132;28;20052;-68
2023/06/27 04:56:53;;;;;;;7.00;2.03;;;;;;;;;;5054280;28;20146;-69
2023/06/27 04:59:19;;;;;;;7.75;2.40;;;;;;;;;;5051051;28;20058;-67
2023/06/27 05:01:46;;;;;;;11.70;2.20;;;;;;;;;;5068464;28;20063;-69
2023/06/27 05:04:13;;;;;;;5.00;1.67;;;;;;;;;;5091632;27;20064;-68
2023/06/27 05:06:39;;;;;;;9.45;2.20;;;;;;;;;;5101577;27;20193;-69
2023/06/27 05:09:07;;;;;;;5.90;2.45;;;;;;;;;;5067668;28;20060;-71
2023/06/27 05:11:34;;;;;;;9.45;2.60;;;;;;;;;;5079215;28;20063;-73
2023/06/27 05:14:01;;;;;;;11.43;2.55;;;;;;;;;;5096605;27;20052;-67
2023/06/27 05:16:27;;;;;;;14.50;2.40;;;;;;;;;;5073333;28;20059;-70
2023/06/27 05:18:54;;;;;;;34.53;14.98;;;;;;;;;;5061505;28;20048;-70
2023/06/27 05:21:20;;;;;;;8.43;2.53;;;;;;;;;;5076337;28;20056;-63
2023/06/27 05:23:47;;;;;;;6.38;1.98;;;;;;;;;;4980250;28;20050;-69
2023/06/27 05:26:16;;;;;;;11.40;2.25;;;;;;;;;;4933296;28;20145;-70
2023/06/27 05:28:42;;;;;;;;;;;;;;;;;;4973305;28;20062;-68
2023/06/27 05:31:08;;;;;;;8.18;2.22;;;;;;;;;;4994890;28;19943;-64
2023/06/27 05:33:35;;;;;;;7.07;2.30;;;;;;;;;;5028534;28;20161;-67
2023/06/27 05:36:01;;;;;;;8.65;2.20;;;;;;;;;;4961897;28;20065;-70
2023/06/27 05:38:28;;;;;;;7.75;2.50;;;;;;;;;;5003526;28;20054;-67
2023/06/27 05:40:55;;;;;;;5.28;2.20;;;;;;;;;;5006631;28;20153;-74
2023/06/27 05:43:23;;;;;;;8.10;2.47;;;;;;;;;;4978698;28;20061;-67
2023/06/27 05:45:49;;;;;;;6.55;3.28;;;;;;;;;;4981354;28;20050;-72
2023/06/27 05:48:16;;;;;;;10.00;2.95;;;;;;;;;;4956866;28;20086;-63
2023/06/27 05:50:43;;;;;;;10.25;2.75;;;;;;;;;;4970963;28;20062;-71
2023/06/27 05:53:09;;;;;;;16.67;2.80;;;;;;;;;;4979455;28;20055;-68
2023/06/27 05:55:36;;;;;;;11.57;2.47;;;;;;;;;;4971192;28;20074;-69
2023/06/27 05:58:03;;;;;;;11.30;4.65;;;;;;;;;;4978033;28;20154;-64
2023/06/27 06:00:31;;;;;;;8.40;2.70;;;;;;;;;;4970954;28;20053;-70
2023/06/27 06:02:57;;;;;;;21.45;6.85;;;;;;;;;;4976803;28;20066;-67
2023/06/27 06:05:23;;;;;;;19.52;6.05;;;;;;;;;;4960396;28;20644;-69
2023/06/27 06:07:50;;;;;;;6.82;2.05;;;;;;;;;;4976473;28;20086;-72
2023/06/27 06:10:17;;;;;;;10.88;2.60;;;;;;;;;;4957387;28;20069;-68
2023/06/27 06:12:44;;;;;;;34.97;15.73;;;;;;;;;;4954727;28;20059;-73
2023/06/27 06:15:10;;;;;;;11.82;3.38;;;;;;;;;;4951553;28;20066;-71
2023/06/27 06:17:38;;;;;;;14.50;2.88;;;;;;;;;;4983220;28;20062;-77
2023/06/27 06:20:09;;;;;;;7.63;2.25;;;;;;;;;;4957772;28;20074;-66
2023/06/27 06:22:36;;;;;;;4.28;1.75;;;;;;;;;;4961932;28;20069;-62
2023/06/27 06:25:03;;;;;;;6.40;1.92;;;;;;;;;;4964916;28;20058;-64
2023/06/27 06:27:30;;;;;;;5.72;1.73;;;;;;;;;;4967500;28;20054;-63
2023/06/27 06:29:57;;;;;;;12.18;2.10;;;;;;;;;;4973563;28;20054;-64
2023/06/27 06:32:23;;;;;;;4.60;1.33;;;;;;;;;;4967685;28;20057;-65
2023/06/27 06:34:51;;;;;;;5.75;1.45;;;;;;;;;;4948069;28;20141;-68
2023/06/27 06:37:18;;;;;;;7.05;1.73;;;;;;;;;;4961627;28;20181;-68
2023/06/27 06:39:45;;;;;;;9.02;1.70;;;;;;;;;;4972026;28;20047;-63
2023/06/27 06:42:11;;;;;;;8.93;1.85;;;;;;;;;;4958353;28;20050;-65
2023/06/27 06:44:38;;;;;;;7.45;1.98;;;;;;;;;;4960250;28;20054;-63
2023/06/27 06:47:04;;;;;;;6.13;2.03;;;;;;;;;;4956620;28;20115;-66
2023/06/27 06:49:31;;;;;;;8.18;2.20;;;;;;;;;;4972835;28;20055;-67
2023/06/27 06:51:59;;;;;;;6.80;1.80;;;;;;;;;;4955128;28;20075;-66
2023/06/27 06:54:25;;;;;;;8.63;1.85;;;;;;;;;;4914329;28;20058;-74
2023/06/27 06:56:52;;;;;;;10.10;2.33;;;;;;;;;;4945868;28;20058;-67
2023/06/27 06:59:18;;;;;;;5.45;1.83;;;;;;;;;;4971046;28;20058;-63
2023/06/27 07:01:45;;;;;;;9.48;2.08;;;;;;;;;;4961403;28;20065;-64
2023/06/27 07:04:11;;;;;;;5.85;1.60;;;;;;;;;;4971418;28;20039;-71
2023/06/27 07:06:38;;;;;;;3.85;1.45;;;;;;;;;;4976096;28;20046;-66
2023/06/27 07:09:06;;;;;;;4.05;1.33;;;;;;;;;;4975521;28;20152;-65
2023/06/27 07:11:32;;;;;;;4.18;1.30;;;;;;;;;;4976951;28;20115;-63
2023/06/27 07:13:59;;;;;;;5.72;1.50;;;;;;;;;;4967048;28;20058;-69
2023/06/27 07:16:26;;;;;;;5.10;1.25;;;;;;;;;;4953034;28;20062;-72
2023/06/27 07:18:53;;;;;;;5.63;1.92;;;;;;;;;;4971975;28;20082;-67
2023/06/27 07:21:19;;;;;;;6.95;1.67;;;;;;;;;;4972054;28;20057;-66
2023/06/27 07:23:46;;;;;;;4.07;1.30;;;;;;;;;;4972123;28;20107;-68
2023/06/27 07:26:15;;;;;;;7.18;1.58;;;;;;;;;;4931723;28;20058;-66
2023/06/27 07:28:44;;;;;;;4.95;1.45;;;;;;;;;;4967846;28;20066;-68
2023/06/27 07:31:10;;;;;;;3.85;1.35;;;;;;;;;;4979590;28;20065;-66
2023/06/27 07:33:37;;;;;;;6.80;1.20;;;;;;;;;;4962948;28;20073;-68
2023/06/27 07:36:06;;;;;;;3.97;1.08;;;;;;;;;;4980091;28;20065;-64
2023/06/27 07:38:32;;;;;;;5.35;1.33;;;;;;;;;;4995792;28;21534;-65
2023/06/27 07:41:01;;;;;;;8.20;1.42;;;;;;;;;;4988250;28;20090;-68
2023/06/27 07:43:31;;;;;;;2.53;1.00;;;;;;;;;;4976391;28;20065;-66
2023/06/27 07:45:59;;;;;;;6.38;1.50;;;;;;;;;;4975006;28;20065;-69
2023/06/27 07:48:25;;;;;;;7.10;1.15;;;;;;;;;;4972187;28;20058;-67
2023/06/27 07:50:52;;;;;;;4.30;1.38;;;;;;;;;;4966530;28;20058;-67
2023/06/27 07:53:19;;;;;;;6.43;1.40;;;;;;;;;;4974896;28;20062;-68
2023/06/27 07:55:45;;;;;;;3.53;1.42;;;;;;;;;;4951852;28;20063;-71
2023/06/27 07:58:14;;;;;;;7.38;1.45;;;;;;;;;;4974161;28;20050;-64
2023/06/27 08:00:42;;;;;;;2.97;1.10;;;;;;;;;;4976381;28;20050;-70
2023/06/27 08:03:08;;;;;;;5.53;1.35;;;;;;;;;;4996263;28;20062;-69
2023/06/27 08:05:38;;;;;;;3.97;1.35;;;;;;;;;;4965674;28;20068;-69
2023/06/27 08:08:09;;;;;;;6.43;1.45;;;;;;;;;;5046928;28;20136;-67
2023/06/27 08:10:36;;;;;;;7.68;1.25;;;;;;;;;;4997823;28;20083;-69
2023/06/27 08:13:05;;;;;;;3.75;1.02;;;;;;;;;;4998076;28;20062;-67
2023/06/27 08:15:32;;;;;;;5.68;1.25;;;;;;;;;;4999605;28;20060;-68
2023/06/27 08:18:00;;;;;;;4.00;1.00;;;;;;;;;;5000572;28;20085;-70
2023/06/27 08:20:27;;;;;;;3.88;1.02;;;;;;;;;;4977665;28;20061;-64
2023/06/27 08:22:54;;;;;;;4.60;1.30;;;;;;;;;;4978945;28;20061;-69
2023/06/27 08:25:20;;;;;;;6.05;1.10;;;;;;;;;;5001027;28;20063;-70
2023/06/27 08:27:47;;;;;;;6.07;1.38;;;;;;;;;;4980729;28;20058;-66
2023/06/27 08:30:13;;;;;;;6.35;1.10;;;;;;;;;;4981476;27;20107;-66
2023/06/27 08:32:42;;;;;;;5.03;0.88;;;;;;;;;;4979784;28;20054;-63
2023/06/27 08:35:13;;;;;;;5.00;1.10;;;;;;;;;;4970306;28;20148;-64
2023/06/27 08:37:40;;;;;;;4.07;0.82;;;;;;;;;;5009564;28;20061;-66
2023/06/27 08:40:09;;;;;;;4.28;1.40;;;;;;;;;;4997839;28;20065;-63
2023/06/27 08:42:35;;;;;;;4.55;1.08;;;;;;;;;;4972522;28;20468;-69
2023/06/27 08:45:02;;;;;;;8.43;1.40;;;;;;;;;;4990746;28;20057;-66
2023/06/27 08:47:30;;;;;;;4.18;1.05;;;;;;;;;;4967994;28;20058;-69
2023/06/27 08:50:03;;;;;;;2.40;1.00;;;;;;;;;;4996735;28;20068;-65
2023/06/27 08:52:39;;;;;;;5.13;0.98;;;;;;;;;;4977720;28;20132;-66
2023/06/27 08:55:07;;;;;;;3.80;0.90;;;;;;;;;;4988269;28;20054;-66
2023/06/27 08:57:36;;;;;;;5.50;1.23;;;;;;;;;;4997977;28;20061;-65
2023/06/27 09:00:10;;;;;;;3.45;1.10;;;;;;;;;;4997774;28;20061;-66
2023/06/27 09:02:37;;;;;;;5.05;1.55;;;;;;;;;;4995627;28;20129;-68
2023/06/27 09:05:05;;;;;;;3.05;0.95;;;;;;;;;;4978247;28;20069;-71
2023/06/27 09:07:32;;;;;;;5.65;1.05;;;;;;;;;;4975704;28;20061;-69
2023/06/27 09:10:00;;;;;;;5.47;1.10;;;;;;;;;;4996728;28;20054;-68
2023/06/27 09:12:27;;;;;;;;;;;;;;;;;;4997992;28;20060;-71
2023/06/27 09:14:53;;;;;;;4.05;1.00;;;;;;;;;;4994989;28;19978;-69
2023/06/27 09:17:20;;;;;;;4.30;1.00;;;;;;;;;;4988230;28;20091;-65
2023/06/27 09:19:46;;;;;;;2.40;0.98;;;;;;;;;;4974313;28;20064;-68
2023/06/27 09:22:14;;;;;;;2.88;0.98;;;;;;;;;;4974770;28;20058;-63
2023/06/27 09:24:41;;;;;;;2.90;0.80;;;;;;;;;;4990041;28;20054;-67
2023/06/27 09:27:10;;;;;;;2.92;1.10;;;;;;;;;;4978457;28;20094;-68
2023/06/27 09:29:37;;;;;;;3.90;0.90;;;;;;;;;;4980602;28;20087;-65
2023/06/27 09:32:08;;;;;;;5.03;1.10;;;;;;;;;;4968953;28;20054;-65
2023/06/27 09:34:35;;;;;;;3.30;0.90;;;;;;;;;;4990039;28;20061;-66
2023/06/27 09:37:03;;;;;;;2.05;0.80;;;;;;;;;;4976585;28;20057;-67
2023/06/27 09:39:29;;;;;;;4.83;0.90;;;;;;;;;;4993959;28;20064;-66
2023/06/27 09:41:56;;;;;;;2.95;1.00;;;;;;;;;;4998627;28;20131;-65
2023/06/27 09:44:25;;;;;;;4.28;1.15;;;;;;;;;;4974674;28;20041;-65
2023/06/27 09:46:52;;;;;;;2.83;0.90;;;;;;;;;;4974751;28;20057;-66
2023/06/27 09:49:19;;;;;;;4.77;0.90;;;;;;;;;;4994782;28;20069;-69
2023/06/27 09:51:46;;;;;;;2.90;0.70;;;;;;;;;;4978102;28;20138;-65
2023/06/27 09:54:13;;;;;;;4.53;1.00;;;;;;;;;;4972702;28;20057;-65
2023/06/27 09:56:40;;;;;;;2.60;0.82;;;;;;;;;;4980527;28;20127;-70
2023/06/27 09:59:10;;;;;;;1.42;0.80;;;;;;;;;;4997054;28;20088;-67
2023/06/27 10:01:39;;;;;;;2.50;0.88;;;;;;;;;;5032075;27;20049;-63
2023/06/27 10:04:12;;;;;;;3.13;0.98;;;;;;;;;;4997160;28;20065;-68
2023/06/27 10:06:41;;;;;;;2.75;1.00;;;;;;;;;;4976124;28;20050;-66
2023/06/27 10:09:08;;;;;;;2.78;0.90;;;;;;;;;;4980787;28;20062;-62
2023/06/27 10:11:35;;;;;;;2.25;0.90;;;;;;;;;;4976474;28;20053;-68
2023/06/27 10:14:03;;;;;;;3.13;0.90;;;;;;;;;;4996826;28;20089;-67
2023/06/27 10:16:30;;;;;;;3.70;0.90;;;;;;;;;;4969090;28;20767;-71
2023/06/27 10:18:59;;;;;;;2.47;1.03;;;;;;;;;;4996897;28;20053;-63
2023/06/27 10:21:28;;;;;;;4.20;0.80;;;;;;;;;;4994169;28;20061;-68
2023/06/27 10:23:57;;;;;;;2.90;0.93;;;;;;;;;;4987859;28;20070;-66
2023/06/27 10:26:25;;;;;;;9.82;1.83;;;;;;;;;;4953849;28;20060;-67
2023/06/27 10:28:52;;;;;;;3.17;0.77;;;;;;;;;;5001075;28;20069;-68
2023/06/27 10:31:39;;;;;;;6.43;1.10;;;;;;;;;;5008614;28;20053;-67
2023/06/27 10:34:17;;;;;;;1.95;0.70;;;;;;;;;;4996834;28;20054;-67
2023/06/27 10:37:01;;;;;;;4.30;0.95;;;;;;;;;;4971815;28;20140;-71
2023/06/27 10:39:29;;;;;;;3.80;0.85;;;;;;;;;;4982535;28;20061;-69
2023/06/27 10:42:04;;;;;;;1.80;0.77;;;;;;;;;;4995550;28;20065;-67
2023/06/27 10:44:34;;;;;;;;;;;;;;;;;;4982823;28;20095;-66
2023/06/27 10:47:15;;;;;;;5.18;1.33;;;;;;;;;;4991190;28;19964;-64
2023/06/27 10:49:48;;;;;;;2.47;0.82;;;;;;;;;;4987570;28;20149;-71
2023/06/27 10:52:20;;;;;;;3.78;1.20;;;;;;;;;;4985450;28;20046;-70
2023/06/27 10:54:48;;;;;;;2.60;0.82;;;;;;;;;;4996495;28;20054;-68
2023/06/27 10:57:16;;;;;;;0.82;0.60;;;;;;;;;;4973228;28;20074;-67
2023/06/27 10:59:56;;;;;;;;;;;;;;;;;;4978822;28;20060;-63
2023/06/27 11:02:33;;;;;;;4.00;1.00;;;;;;;;;;4967617;28;19925;-74
2023/06/27 11:05:01;;;;;;;4.32;1.00;;;;;;;;;;4977635;28;20058;-68
2023/06/27 11:07:38;;;;;;;4.45;0.93;;;;;;;;;;4991253;28;20054;-70
2023/06/27 11:10:21;;;;;;;5.75;1.10;;;;;;;;;;4996256;28;20114;-67
2023/06/27 11:12:53;;;;;;;1.48;0.80;;;;;;;;;;4976850;28;20061;-65
2023/06/27 11:15:19;;;;;;;2.63;0.80;;;;;;;;;;4975163;28;20065;-65
2023/06/27 11:17:46;;;;;;;6.25;0.95;;;;;;;;;;4983876;28;20065;-69
2023/06/27 11:20:14;;;;;;;3.90;1.10;;;;;;;;;;5024309;28;20045;-70
2023/06/27 11:22:41;;;;;;;2.83;0.80;;;;;;;;;;5012598;28;20065;-66
2023/06/27 11:25:12;;;;;;;6.63;1.10;;;;;;;;;;4975641;28;20042;-67
2023/06/27 11:27:38;;;;;;;3.65;0.70;;;;;;;;;;4987853;28;20138;-62
2023/06/27 11:30:08;;;;;;;3.30;1.00;;;;;;;;;;5014841;28;20138;-70
2023/06/27 11:32:35;;;;;;;3.15;1.02;;;;;;;;;;4968384;28;20048;-66
2023/06/27 11:35:02;;;;;;;2.42;0.70;;;;;;;;;;5006991;28;20061;-66
2023/06/27 11:37:31;;;;;;;5.28;2.08;;;;;;;;;;4997667;28;20050;-70
2023/06/27 11:40:07;;;;;;;3.85;1.05;;;;;;;;;;4980357;28;20062;-65
2023/06/27 11:42:36;;;;;;;3.75;1.00;;;;;;;;;;5007796;28;20045;-70
2023/06/27 11:45:08;;;;;;;2.80;1.10;;;;;;;;;;5049001;28;20049;-67
2023/06/27 11:47:34;;;;;;;4.43;1.20;;;;;;;;;;4983743;28;20386;-65
2023/06/27 11:50:21;;;;;;;5.95;1.00;;;;;;;;;;4978655;28;20084;-72
2023/06/27 11:52:52;;;;;;;4.47;0.90;;;;;;;;;;5000866;28;20054;-70
2023/06/27 11:55:22;;;;;;;3.90;1.42;;;;;;;;;;4977237;28;20046;-67
2023/06/27 11:57:49;;;;;;;19.60;9.27;;;;;;;;;;4984620;28;20145;-65
2023/06/27 12:00:18;;;;;;;3.95;1.10;;;;;;;;;;4976189;28;20050;-71
2023/06/27 12:02:48;;;;;;;4.00;1.08;;;;;;;;;;4989627;28;20058;-70
2023/06/27 12:05:15;;;;;;;1.40;0.70;;;;;;;;;;5000519;28;20086;-71
2023/06/27 12:07:42;;;;;;;2.33;0.75;;;;;;;;;;4982914;28;20054;-65
2023/06/27 12:10:14;;;;;;;2.22;0.90;;;;;;;;;;4986728;28;20157;-70
2023/06/27 12:12:43;;;;;;;3.05;0.82;;;;;;;;;;5022068;28;20097;-69
2023/06/27 12:15:14;;;;;;;2.60;0.77;;;;;;;;;;4979432;28;20049;-68
2023/06/27 12:17:55;;;;;;;3.30;0.70;;;;;;;;;;5011654;27;20162;-68
2023/06/27 12:20:25;;;;;;;1.77;0.63;;;;;;;;;;4960806;28;20074;-66
2023/06/27 12:22:51;;;;;;;1.77;0.80;;;;;;;;;;4985911;28;20141;-68
2023/06/27 12:25:29;;;;;;;2.58;1.08;;;;;;;;;;4978542;28;20119;-67
2023/06/27 12:27:56;;;;;;;1.58;0.90;;;;;;;;;;4986455;28;20064;-63
2023/06/27 12:30:22;;;;;;;2.35;0.80;;;;;;;;;;4998420;27;20062;-72
2023/06/27 12:32:52;;;;;;;1.65;0.70;;;;;;;;;;4992715;28;20049;-65
2023/06/27 12:35:21;;;;;;;2.75;0.70;;;;;;;;;;4998479;28;20137;-68
2023/06/27 12:37:49;;;;;;;3.08;0.95;;;;;;;;;;5000325;28;20061;-69
2023/06/27 12:40:20;;;;;;;;;;;;;;;;;;4997508;28;20075;-67
2023/06/27 12:42:52;;;;;;;6.70;2.55;;;;;;;;;;4996305;28;19925;-72
2023/06/27 12:45:19;;;;;;;3.25;1.27;;;;;;;;;;4997761;28;20057;-71
2023/06/27 12:47:48;;;;;;;3.58;1.00;;;;;;;;;;4967905;28;20050;-69
2023/06/27 12:50:15;;;;;;;2.22;1.00;;;;;;;;;;4991192;28;20073;-63
2023/06/27 12:52:47;;;;;;;1.05;0.70;;;;;;;;;;4989634;28;20157;-67
2023/06/27 12:55:14;;;;;;;1.98;0.80;;;;;;;;;;4980318;28;20096;-65
2023/06/27 12:57:42;;;;;;;5.78;0.85;;;;;;;;;;5020488;27;20060;-63
2023/06/27 13:00:11;;;;;;;3.40;0.70;;;;;;;;;;4964226;28;20115;-69
2023/06/27 13:02:40;;;;;;;2.08;0.85;;;;;;;;;;4985465;28;20052;-68
2023/06/27 13:05:07;;;;;;;1.73;0.90;;;;;;;;;;4985664;28;20053;-69
2023/06/27 13:07:34;;;;;;;3.03;0.90;;;;;;;;;;4968014;28;20073;-67
2023/06/27 13:10:01;;;;;;;3.35;1.10;;;;;;;;;;4988714;28;20137;-69
2023/06/27 13:12:27;;;;;;;1.60;0.80;;;;;;;;;;4976170;28;20111;-68
2023/06/27 13:14:54;;;;;;;2.28;1.02;;;;;;;;;;4987713;28;20073;-66
2023/06/27 13:17:22;;;;;;;2.45;0.93;;;;;;;;;;4986263;28;20058;-63
2023/06/27 13:19:51;;;;;;;2.80;0.90;;;;;;;;;;4984283;28;20060;-68
2023/06/27 13:22:17;;;;;;;3.72;0.80;;;;;;;;;;4974350;28;20120;-66
2023/06/27 13:24:45;;;;;;;0.77;0.55;;;;;;;;;;4979589;28;20142;-64
2023/06/27 13:27:11;;;;;;;3.90;0.95;;;;;;;;;;5042802;27;20045;-71
2023/06/27 13:29:38;;;;;;;2.80;0.95;;;;;;;;;;4987399;28;20123;-64
2023/06/27 13:32:08;;;;;;;2.40;0.80;;;;;;;;;;4988919;28;20050;-69
2023/06/27 13:34:36;;;;;;;3.92;0.80;;;;;;;;;;4985589;28;20070;-65
2023/06/27 13:37:02;;;;;;;3.17;0.73;;;;;;;;;;4990811;28;20084;-68
2023/06/27 13:39:29;;;;;;;2.15;0.95;;;;;;;;;;4973993;28;20077;-73
2023/06/27 13:41:55;;;;;;;1.52;0.73;;;;;;;;;;4977235;28;20066;-73
2023/06/27 13:44:22;;;;;;;3.70;0.88;;;;;;;;;;4968363;28;20060;-69
2023/06/27 13:46:48;;;;;;;5.82;0.88;;;;;;;;;;4960205;28;20197;-66
2023/06/27 13:49:15;;;;;;;2.65;1.00;;;;;;;;;;4980249;28;20058;-71
2023/06/27 13:51:43;;;;;;;2.42;0.80;;;;;;;;;;5007734;28;20065;-67
2023/06/27 13:54:09;;;;;;;;;;;;;;;;;;4988929;28;20073;-70
2023/06/27 13:56:36;;;;;;;5.72;0.90;;;;;;;;;;4979047;28;19926;-66
2023/06/27 13:59:02;;;;;;;3.58;0.90;;;;;;;;;;4982706;28;20743;-66
2023/06/27 14:01:29;;;;;;;1.92;0.80;;;;;;;;;;4969872;28;20062;-68
2023/06/27 14:03:58;;;;;;;4.72;0.88;;;;;;;;;;5009850;28;20061;-69
2023/06/27 14:06:25;;;;;;;1.98;0.73;;;;;;;;;;4962596;28;20257;-66
2023/06/27 14:08:53;;;;;;;2.40;0.80;;;;;;;;;;4996059;28;20065;-68
2023/06/27 14:11:23;;;;;;;4.78;0.88;;;;;;;;;;4986095;28;20066;-68
2023/06/27 14:13:51;;;;;;;1.65;0.75;;;;;;;;;;4987613;28;20115;-65
2023/06/27 14:16:17;;;;;;;6.10;1.05;;;;;;;;;;4973004;28;20065;-67
2023/06/27 14:18:45;;;;;;;4.70;0.80;;;;;;;;;;4987607;28;20115;-70
2023/06/27 14:21:12;;;;;;;2.95;0.90;;;;;;;;;;4989346;28;20145;-68
2023/06/27 14:23:39;;;;;;;3.30;1.00;;;;;;;;;;4983723;28;20111;-68
2023/06/27 14:26:18;;;;;;;2.78;0.90;;;;;;;;;;4982161;27;20078;-70
2023/06/27 14:28:44;;;;;;;5.53;1.08;;;;;;;;;;4992156;28;20141;-64
2023/06/27 14:31:11;;;;;;;1.98;0.82;;;;;;;;;;4992299;28;20062;-66
2023/06/27 14:33:38;;;;;;;3.42;0.73;;;;;;;;;;4989534;28;20061;-64
2023/06/27 14:36:07;;;;;;;2.63;1.15;;;;;;;;;;4959443;28;20150;-67
2023/06/27 14:38:34;;;;;;;5.68;1.17;;;;;;;;;;4989086;28;20052;-69
2023/06/27 14:41:00;;;;;;;4.47;1.63;;;;;;;;;;4996656;28;20070;-64
2023/06/27 14:43:28;;;;;;;3.85;1.10;;;;;;;;;;4981458;28;20062;-68
2023/06/27 14:45:55;;;;;;;2.50;0.80;;;;;;;;;;4990979;28;20058;-65
2023/06/27 14:48:21;;;;;;;4.38;1.10;;;;;;;;;;4999431;28;20049;-66